Terminal Aerodrome Forecast
Issued by NWS

Home | Current Version | Previous Version | Text Only | Print | Product List | Glossary On
Versions: 1 2 3 4 5 6 7 8 9 10 11 12 13 14 15 16 17 18 19 20
672
FTUS45 KRIW 281730
TAFCOD
TAF
KCOD 281730Z 2818/2918 35014G20KT P6SM VCSH SCT012 OVC035
      TEMPO 2818/2820 3SM -SN BKN012
     FM290000 36011KT P6SM VCSH SCT018 OVC035
     FM290300 33008KT P6SM SCT030 BKN050
     FM290700 26007KT P6SM SCT060 BKN120
      AMD LTD TO CLD VIS AND WIND=

USA.gov is the U.S. government's official web portal to all federal, state and local government web resources and services.